sensor_id;sensor_type;location;lat;lon;timestamp;temperature;humidity
61092;DHT22;46975;51.898;11.444;2022-09-03T00:01:02;15.20;99.90
61092;DHT22;46975;51.898;11.444;2022-09-03T00:03:52;15.20;99.90
61092;DHT22;46975;51.898;11.444;2022-09-03T00:08:57;15.20;99.90
61092;DHT22;46975;51.898;11.444;2022-09-03T00:11:26;15.20;99.90
61092;DHT22;46975;51.898;11.444;2022-09-03T00:14:42;15.30;99.90
61092;DHT22;46975;51.898;11.444;2022-09-03T00:16:56;15.30;99.90
61092;DHT22;46975;51.898;11.444;2022-09-03T00:19:30;15.30;99.90
61092;DHT22;46975;51.898;11.444;2022-09-03T00:22:02;15.30;99.90
61092;DHT22;46975;51.898;11.444;2022-09-03T00:24:35;15.30;99.90
61092;DHT22;46975;51.898;11.444;2022-09-03T00:27:05;15.20;99.90
61092;DHT22;46975;51.898;11.444;2022-09-03T00:29:45;15.20;99.90
61092;DHT22;46975;51.898;11.444;2022-09-03T00:32:17;15.20;99.90
61092;DHT22;46975;51.898;11.444;2022-09-03T00:34:49;15.10;99.90
61092;DHT22;46975;51.898;11.444;2022-09-03T00:37:16;15.10;99.90
61092;DHT22;46975;51.898;11.444;2022-09-03T00:39:42;15.00;99.90
61092;DHT22;46975;51.898;11.444;2022-09-03T00:46:04;15.00;99.90
61092;DHT22;46975;51.898;11.444;2022-09-03T00:48:25;14.90;99.90
61092;DHT22;46975;51.898;11.444;2022-09-03T01:00:13;14.70;99.90
61092;DHT22;46975;51.898;11.444;2022-09-03T01:13:43;14.90;99.90
61092;DHT22;46975;51.898;11.444;2022-09-03T01:16:37;15.00;99.90
61092;DHT22;46975;51.898;11.444;2022-09-03T01:24:45;14.90;99.90
61092;DHT22;46975;51.898;11.444;2022-09-03T01:27:31;14.90;99.90
61092;DHT22;46975;51.898;11.444;2022-09-03T01:30:07;14.90;99.90
61092;DHT22;46975;51.898;11.444;2022-09-03T01:32:52;15.00;99.90
61092;DHT22;46975;51.898;11.444;2022-09-03T01:35:46;15.00;99.90
61092;DHT22;46975;51.898;11.444;2022-09-03T01:38:36;14.90;99.90
61092;DHT22;46975;51.898;11.444;2022-09-03T01:46:39;14.90;99.90
61092;DHT22;46975;51.898;11.444;2022-09-03T01:51:53;14.90;99.90
61092;DHT22;46975;51.898;11.444;2022-09-03T01:57:18;14.90;99.90
61092;DHT22;46975;51.898;11.444;2022-09-03T02:00:05;14.80;99.90
61092;DHT22;46975;51.898;11.444;2022-09-03T02:02:32;14.80;99.90
61092;DHT22;46975;51.898;11.444;2022-09-03T02:05:11;14.70;99.90
61092;DHT22;46975;51.898;11.444;2022-09-03T02:07:41;14.70;99.90
61092;DHT22;46975;51.898;11.444;2022-09-03T02:10:11;14.70;99.90
61092;DHT22;46975;51.898;11.444;2022-09-03T02:12:39;14.60;99.90
61092;DHT22;46975;51.898;11.444;2022-09-03T02:15:13;14.60;99.90
61092;DHT22;46975;51.898;11.444;2022-09-03T02:17:42;14.60;99.90
61092;DHT22;46975;51.898;11.444;2022-09-03T02:20:11;14.50;99.90
61092;DHT22;46975;51.898;11.444;2022-09-03T02:22:38;14.40;99.90
61092;DHT22;46975;51.898;11.444;2022-09-03T02:25:05;14.40;99.90
61092;DHT22;46975;51.898;11.444;2022-09-03T02:27:31;14.40;99.90
61092;DHT22;46975;51.898;11.444;2022-09-03T02:29:58;14.30;99.90
61092;DHT22;46975;51.898;11.444;2022-09-03T02:32:24;14.30;99.90
61092;DHT22;46975;51.898;11.444;2022-09-03T02:34:51;14.40;99.90
61092;DHT22;46975;51.898;11.444;2022-09-03T02:37:18;14.40;99.90
61092;DHT22;46975;51.898;11.444;2022-09-03T02:39:44;14.40;99.90
61092;DHT22;46975;51.898;11.444;2022-09-03T02:42:11;14.30;99.90
61092;DHT22;46975;51.898;11.444;2022-09-03T02:45:03;14.30;99.90
61092;DHT22;46975;51.898;11.444;2022-09-03T02:47:34;14.30;99.90
61092;DHT22;46975;51.898;11.444;2022-09-03T02:50:00;14.30;99.90
61092;DHT22;46975;51.898;11.444;2022-09-03T02:52:26;14.20;99.90
61092;DHT22;46975;51.898;11.444;2022-09-03T02:54:52;14.20;99.90
61092;DHT22;46975;51.898;11.444;2022-09-03T02:57:17;14.20;99.90
61092;DHT22;46975;51.898;11.444;2022-09-03T02:59:43;14.10;99.90
61092;DHT22;46975;51.898;11.444;2022-09-03T03:02:10;14.20;99.90
61092;DHT22;46975;51.898;11.444;2022-09-03T03:04:36;14.10;99.90
61092;DHT22;46975;51.898;11.444;2022-09-03T03:07:02;14.10;99.90
61092;DHT22;46975;51.898;11.444;2022-09-03T03:09:28;14.00;99.90
61092;DHT22;46975;51.898;11.444;2022-09-03T03:11:54;14.00;99.90
61092;DHT22;46975;51.898;11.444;2022-09-03T03:14:20;13.90;99.90
61092;DHT22;46975;51.898;11.444;2022-09-03T03:16:47;13.90;99.90
61092;DHT22;46975;51.898;11.444;2022-09-03T03:19:12;13.80;99.90
61092;DHT22;46975;51.898;11.444;2022-09-03T03:21:38;13.80;99.90
61092;DHT22;46975;51.898;11.444;2022-09-03T03:24:04;13.70;99.90
61092;DHT22;46975;51.898;11.444;2022-09-03T03:26:30;13.70;99.90
61092;DHT22;46975;51.898;11.444;2022-09-03T03:28:58;13.60;99.90
61092;DHT22;46975;51.898;11.444;2022-09-03T03:31:25;13.60;99.90
61092;DHT22;46975;51.898;11.444;2022-09-03T03:33:57;13.50;99.90
61092;DHT22;46975;51.898;11.444;2022-09-03T03:36:26;13.50;99.90
61092;DHT22;46975;51.898;11.444;2022-09-03T03:38:56;13.40;99.90
61092;DHT22;46975;51.898;11.444;2022-09-03T03:41:25;13.30;99.90
61092;DHT22;46975;51.898;11.444;2022-09-03T03:43:55;13.20;99.90
61092;DHT22;46975;51.898;11.444;2022-09-03T03:46:22;13.10;99.90
61092;DHT22;46975;51.898;11.444;2022-09-03T03:48:49;13.10;99.90
61092;DHT22;46975;51.898;11.444;2022-09-03T03:51:15;13.00;99.90
61092;DHT22;46975;51.898;11.444;2022-09-03T03:53:41;12.90;99.90
61092;DHT22;46975;51.898;11.444;2022-09-03T03:56:10;12.90;99.90
61092;DHT22;46975;51.898;11.444;2022-09-03T03:58:35;12.80;99.90
61092;DHT22;46975;51.898;11.444;2022-09-03T04:01:16;12.70;99.90
61092;DHT22;46975;51.898;11.444;2022-09-03T04:03:42;12.70;99.90
61092;DHT22;46975;51.898;11.444;2022-09-03T04:06:10;12.60;99.90
61092;DHT22;46975;51.898;11.444;2022-09-03T04:08:38;12.60;99.90
61092;DHT22;46975;51.898;11.444;2022-09-03T04:11:06;12.50;99.90
61092;DHT22;46975;51.898;11.444;2022-09-03T04:13:34;12.40;99.90
61092;DHT22;46975;51.898;11.444;2022-09-03T04:16:21;12.40;99.90
61092;DHT22;46975;51.898;11.444;2022-09-03T04:18:48;12.30;99.90
61092;DHT22;46975;51.898;11.444;2022-09-03T04:21:16;12.20;99.90
61092;DHT22;46975;51.898;11.444;2022-09-03T04:23:44;12.20;99.90
61092;DHT22;46975;51.898;11.444;2022-09-03T04:26:13;12.10;99.90
61092;DHT22;46975;51.898;11.444;2022-09-03T04:28:39;12.10;99.90
61092;DHT22;46975;51.898;11.444;2022-09-03T04:31:09;12.10;99.90
61092;DHT22;46975;51.898;11.444;2022-09-03T04:33:35;12.10;99.90
61092;DHT22;46975;51.898;11.444;2022-09-03T04:36:23;12.00;99.90
61092;DHT22;46975;51.898;11.444;2022-09-03T04:38:51;12.10;99.90
61092;DHT22;46975;51.898;11.444;2022-09-03T04:41:21;12.10;99.90
61092;DHT22;46975;51.898;11.444;2022-09-03T04:43:50;12.10;99.90
61092;DHT22;46975;51.898;11.444;2022-09-03T04:46:16;12.10;99.90
61092;DHT22;46975;51.898;11.444;2022-09-03T04:48:42;12.10;99.90
61092;DHT22;46975;51.898;11.444;2022-09-03T04:51:09;12.10;99.90
61092;DHT22;46975;51.898;11.444;2022-09-03T04:53:42;12.10;99.90
61092;DHT22;46975;51.898;11.444;2022-09-03T04:56:15;12.10;99.90
61092;DHT22;46975;51.898;11.444;2022-09-03T04:58:41;12.20;99.90
61092;DHT22;46975;51.898;11.444;2022-09-03T05:01:09;12.20;99.90
61092;DHT22;46975;51.898;11.444;2022-09-03T05:03:35;12.30;99.90
61092;DHT22;46975;51.898;11.444;2022-09-03T05:06:02;12.20;99.90
61092;DHT22;46975;51.898;11.444;2022-09-03T05:08:27;12.20;99.90
61092;DHT22;46975;51.898;11.444;2022-09-03T05:11:00;12.20;99.90
61092;DHT22;46975;51.898;11.444;2022-09-03T05:13:26;12.20;99.90
61092;DHT22;46975;51.898;11.444;2022-09-03T05:16:03;12.20;99.90
61092;DHT22;46975;51.898;11.444;2022-09-03T05:18:29;12.20;99.90
61092;DHT22;46975;51.898;11.444;2022-09-03T05:21:03;12.10;99.90
61092;DHT22;46975;51.898;11.444;2022-09-03T05:23:29;12.20;99.90
61092;DHT22;46975;51.898;11.444;2022-09-03T05:26:03;12.20;99.90
61092;DHT22;46975;51.898;11.444;2022-09-03T05:28:30;12.20;99.90
61092;DHT22;46975;51.898;11.444;2022-09-03T05:31:00;12.30;99.90
61092;DHT22;46975;51.898;11.444;2022-09-03T05:33:26;12.30;99.90
61092;DHT22;46975;51.898;11.444;2022-09-03T05:35:53;12.30;99.90
61092;DHT22;46975;51.898;11.444;2022-09-03T05:38:19;12.40;99.90
61092;DHT22;46975;51.898;11.444;2022-09-03T05:40:45;12.40;99.90
61092;DHT22;46975;51.898;11.444;2022-09-03T05:43:12;12.50;99.90
61092;DHT22;46975;51.898;11.444;2022-09-03T05:45:38;12.50;99.90
61092;DHT22;46975;51.898;11.444;2022-09-03T05:48:03;12.60;99.90
61092;DHT22;46975;51.898;11.444;2022-09-03T05:50:29;12.60;99.90
61092;DHT22;46975;51.898;11.444;2022-09-03T05:52:54;12.70;99.90
61092;DHT22;46975;51.898;11.444;2022-09-03T05:55:20;12.80;99.90
61092;DHT22;46975;51.898;11.444;2022-09-03T05:57:51;12.90;99.90
61092;DHT22;46975;51.898;11.444;2022-09-03T06:00:16;13.10;99.90
61092;DHT22;46975;51.898;11.444;2022-09-03T06:02:51;13.20;99.90
61092;DHT22;46975;51.898;11.444;2022-09-03T06:05:17;13.40;99.90
61092;DHT22;46975;51.898;11.444;2022-09-03T06:07:44;13.40;99.90
61092;DHT22;46975;51.898;11.444;2022-09-03T06:10:13;13.40;99.90
61092;DHT22;46975;51.898;11.444;2022-09-03T06:12:40;13.40;99.90
61092;DHT22;46975;51.898;11.444;2022-09-03T06:15:06;13.50;99.90
61092;DHT22;46975;51.898;11.444;2022-09-03T06:17:32;13.60;99.90
61092;DHT22;46975;51.898;11.444;2022-09-03T06:19:57;13.60;99.90
61092;DHT22;46975;51.898;11.444;2022-09-03T06:22:23;13.70;99.90
61092;DHT22;46975;51.898;11.444;2022-09-03T06:24:50;13.80;99.90
61092;DHT22;46975;51.898;11.444;2022-09-03T06:27:15;13.90;99.90
61092;DHT22;46975;51.898;11.444;2022-09-03T06:29:41;14.00;99.90
61092;DHT22;46975;51.898;11.444;2022-09-03T06:32:07;14.10;99.90
61092;DHT22;46975;51.898;11.444;2022-09-03T06:34:33;14.10;99.90
61092;DHT22;46975;51.898;11.444;2022-09-03T06:36:58;14.20;99.90
61092;DHT22;46975;51.898;11.444;2022-09-03T06:39:24;14.30;99.90
61092;DHT22;46975;51.898;11.444;2022-09-03T06:41:51;14.30;99.90
61092;DHT22;46975;51.898;11.444;2022-09-03T06:44:17;14.40;99.90
61092;DHT22;46975;51.898;11.444;2022-09-03T06:46:43;14.50;99.90
61092;DHT22;46975;51.898;11.444;2022-09-03T06:49:11;14.60;99.90
61092;DHT22;46975;51.898;11.444;2022-09-03T06:51:38;14.70;99.90
61092;DHT22;46975;51.898;11.444;2022-09-03T06:54:05;14.80;99.90
61092;DHT22;46975;51.898;11.444;2022-09-03T06:56:32;14.90;99.90
61092;DHT22;46975;51.898;11.444;2022-09-03T06:58:59;15.10;99.90
61092;DHT22;46975;51.898;11.444;2022-09-03T07:01:27;15.30;99.90
61092;DHT22;46975;51.898;11.444;2022-09-03T07:03:56;15.40;99.90
61092;DHT22;46975;51.898;11.444;2022-09-03T07:06:28;15.50;99.90
61092;DHT22;46975;51.898;11.444;2022-09-03T07:08:54;15.60;99.90
61092;DHT22;46975;51.898;11.444;2022-09-03T07:11:25;15.70;99.90
61092;DHT22;46975;51.898;11.444;2022-09-03T07:13:52;15.90;99.90
61092;DHT22;46975;51.898;11.444;2022-09-03T07:16:22;16.50;99.90
61092;DHT22;46975;51.898;11.444;2022-09-03T07:18:48;18.60;99.90
61092;DHT22;46975;51.898;11.444;2022-09-03T07:21:19;20.80;99.90
61092;DHT22;46975;51.898;11.444;2022-09-03T07:23:46;21.30;99.90
61092;DHT22;46975;51.898;11.444;2022-09-03T07:26:16;22.40;99.90
61092;DHT22;46975;51.898;11.444;2022-09-03T07:28:44;22.60;99.90
61092;DHT22;46975;51.898;11.444;2022-09-03T07:31:21;23.60;99.90
61092;DHT22;46975;51.898;11.444;2022-09-03T07:33:53;23.10;99.90
61092;DHT22;46975;51.898;11.444;2022-09-03T07:36:20;22.20;99.90
61092;DHT22;46975;51.898;11.444;2022-09-03T07:38:46;21.80;99.90
61092;DHT22;46975;51.898;11.444;2022-09-03T07:41:13;21.50;99.90
61092;DHT22;46975;51.898;11.444;2022-09-03T07:43:44;22.70;99.90
61092;DHT22;46975;51.898;11.444;2022-09-03T07:46:15;23.90;98.50
61092;DHT22;46975;51.898;11.444;2022-09-03T07:48:51;24.30;97.20
61092;DHT22;46975;51.898;11.444;2022-09-03T07:51:19;23.30;98.20
61092;DHT22;46975;51.898;11.444;2022-09-03T07:53:46;21.80;99.90
61092;DHT22;46975;51.898;11.444;2022-09-03T07:56:12;21.20;99.90
61092;DHT22;46975;51.898;11.444;2022-09-03T07:58:38;20.90;99.90
61092;DHT22;46975;51.898;11.444;2022-09-03T08:01:17;20.50;99.90
61092;DHT22;46975;51.898;11.444;2022-09-03T08:03:45;20.20;99.90
61092;DHT22;46975;51.898;11.444;2022-09-03T08:06:11;19.90;99.90
61092;DHT22;46975;51.898;11.444;2022-09-03T08:08:39;19.60;99.90
61092;DHT22;46975;51.898;11.444;2022-09-03T08:11:10;19.40;99.90
61092;DHT22;46975;51.898;11.444;2022-09-03T08:13:41;19.40;99.90
61092;DHT22;46975;51.898;11.444;2022-09-03T08:16:08;19.40;99.90
61092;DHT22;46975;51.898;11.444;2022-09-03T08:18:35;19.50;99.90
61092;DHT22;46975;51.898;11.444;2022-09-03T08:21:12;19.40;99.90
61092;DHT22;46975;51.898;11.444;2022-09-03T08:23:43;19.40;99.90
61092;DHT22;46975;51.898;11.444;2022-09-03T08:26:09;19.50;99.90
61092;DHT22;46975;51.898;11.444;2022-09-03T08:28:36;19.50;99.90
61092;DHT22;46975;51.898;11.444;2022-09-03T08:31:13;19.50;99.90
61092;DHT22;46975;51.898;11.444;2022-09-03T08:33:42;19.50;99.90
61092;DHT22;46975;51.898;11.444;2022-09-03T08:36:19;19.50;99.90
61092;DHT22;46975;51.898;11.444;2022-09-03T08:38:48;19.70;99.90
61092;DHT22;46975;51.898;11.444;2022-09-03T08:41:31;19.70;99.90
61092;DHT22;46975;51.898;11.444;2022-09-03T08:47:06;19.60;99.90
61092;DHT22;46975;51.898;11.444;2022-09-03T08:49:55;19.80;99.90
61092;DHT22;46975;51.898;11.444;2022-09-03T08:52:41;19.90;99.90
61092;DHT22;46975;51.898;11.444;2022-09-03T08:55:34;19.80;99.90
61092;DHT22;46975;51.898;11.444;2022-09-03T08:58:20;19.80;99.90
61092;DHT22;46975;51.898;11.444;2022-09-03T09:01:27;19.90;99.90
61092;DHT22;46975;51.898;11.444;2022-09-03T09:04:16;20.00;99.90
61092;DHT22;46975;51.898;11.444;2022-09-03T09:09:52;19.90;99.90
61092;DHT22;46975;51.898;11.444;2022-09-03T09:12:45;20.00;99.90
61092;DHT22;46975;51.898;11.444;2022-09-03T09:15:38;20.10;99.90
61092;DHT22;46975;51.898;11.444;2022-09-03T09:23:43;20.40;99.90
61092;DHT22;46975;51.898;11.444;2022-09-03T09:26:14;20.50;99.90
61092;DHT22;46975;51.898;11.444;2022-09-03T09:28:41;20.50;99.90
61092;DHT22;46975;51.898;11.444;2022-09-03T09:31:10;20.60;99.90
61092;DHT22;46975;51.898;11.444;2022-09-03T09:33:39;20.70;99.90
61092;DHT22;46975;51.898;11.444;2022-09-03T09:36:10;20.70;99.90
61092;DHT22;46975;51.898;11.444;2022-09-03T09:38:40;20.80;99.90
61092;DHT22;46975;51.898;11.444;2022-09-03T09:41:15;20.90;99.90
61092;DHT22;46975;51.898;11.444;2022-09-03T09:43:41;21.00;99.90
61092;DHT22;46975;51.898;11.444;2022-09-03T09:46:31;21.20;99.90
61092;DHT22;46975;51.898;11.444;2022-09-03T09:48:58;21.00;99.70
61092;DHT22;46975;51.898;11.444;2022-09-03T09:51:29;21.10;99.50
61092;DHT22;46975;51.898;11.444;2022-09-03T09:54:17;21.10;99.40
61092;DHT22;46975;51.898;11.444;2022-09-03T09:56:45;21.30;99.90
61092;DHT22;46975;51.898;11.444;2022-09-03T09:59:12;21.50;99.60
61092;DHT22;46975;51.898;11.444;2022-09-03T10:01:41;21.70;98.70
61092;DHT22;46975;51.898;11.444;2022-09-03T10:04:29;21.70;97.40
61092;DHT22;46975;51.898;11.444;2022-09-03T10:07:12;21.90;95.70
61092;DHT22;46975;51.898;11.444;2022-09-03T10:09:40;22.00;96.90
61092;DHT22;46975;51.898;11.444;2022-09-03T10:12:29;21.90;96.30
61092;DHT22;46975;51.898;11.444;2022-09-03T10:15:10;22.20;95.50
61092;DHT22;46975;51.898;11.444;2022-09-03T10:18:21;22.50;94.60
61092;DHT22;46975;51.898;11.444;2022-09-03T10:21:14;22.70;94.30
61092;DHT22;46975;51.898;11.444;2022-09-03T10:26:31;22.80;92.90
61092;DHT22;46975;51.898;11.444;2022-09-03T10:29:00;22.80;92.20
61092;DHT22;46975;51.898;11.444;2022-09-03T10:31:42;23.00;91.10
61092;DHT22;46975;51.898;11.444;2022-09-03T10:39:18;23.30;89.60
61092;DHT22;46975;51.898;11.444;2022-09-03T10:53:02;24.00;87.10
61092;DHT22;46975;51.898;11.444;2022-09-03T11:07:01;25.10;79.70
61092;DHT22;46975;51.898;11.444;2022-09-03T11:09:45;25.60;78.70
61092;DHT22;46975;51.898;11.444;2022-09-03T11:12:22;25.60;76.10
61092;DHT22;46975;51.898;11.444;2022-09-03T11:17:48;25.00;76.60
61092;DHT22;46975;51.898;11.444;2022-09-03T11:20:19;24.70;75.30
61092;DHT22;46975;51.898;11.444;2022-09-03T11:22:46;25.00;71.30
61092;DHT22;46975;51.898;11.444;2022-09-03T11:25:14;25.40;72.80
61092;DHT22;46975;51.898;11.444;2022-09-03T11:30:09;24.90;74.80
61092;DHT22;46975;51.898;11.444;2022-09-03T11:33:09;24.40;78.90
61092;DHT22;46975;51.898;11.444;2022-09-03T11:40:41;25.20;75.20
61092;DHT22;46975;51.898;11.444;2022-09-03T11:48:40;23.90;75.20
61092;DHT22;46975;51.898;11.444;2022-09-03T11:54:22;24.30;73.30
61092;DHT22;46975;51.898;11.444;2022-09-03T11:56:49;25.00;74.50
61092;DHT22;46975;51.898;11.444;2022-09-03T11:59:22;25.70;72.60
61092;DHT22;46975;51.898;11.444;2022-09-03T12:02:01;26.10;74.00
61092;DHT22;46975;51.898;11.444;2022-09-03T12:15:16;27.60;64.60
61092;DHT22;46975;51.898;11.444;2022-09-03T12:17:56;27.50;63.20
61092;DHT22;46975;51.898;11.444;2022-09-03T12:20:42;27.70;61.10
61092;DHT22;46975;51.898;11.444;2022-09-03T12:23:12;28.20;60.20
61092;DHT22;46975;51.898;11.444;2022-09-03T12:25:44;28.40;60.70
61092;DHT22;46975;51.898;11.444;2022-09-03T12:28:16;28.20;61.10
61092;DHT22;46975;51.898;11.444;2022-09-03T12:30:43;27.90;57.60
61092;DHT22;46975;51.898;11.444;2022-09-03T12:33:12;27.80;59.00
61092;DHT22;46975;51.898;11.444;2022-09-03T12:35:38;28.00;57.60
61092;DHT22;46975;51.898;11.444;2022-09-03T12:38:04;28.10;60.30
61092;DHT22;46975;51.898;11.444;2022-09-03T12:40:30;28.70;58.90
61092;DHT22;46975;51.898;11.444;2022-09-03T12:43:11;27.60;56.50
61092;DHT22;46975;51.898;11.444;2022-09-03T12:45:44;26.60;59.00
61092;DHT22;46975;51.898;11.444;2022-09-03T12:48:17;26.90;58.70
61092;DHT22;46975;51.898;11.444;2022-09-03T12:50:45;27.30;60.70
61092;DHT22;46975;51.898;11.444;2022-09-03T12:53:25;28.00;61.10
61092;DHT22;46975;51.898;11.444;2022-09-03T12:55:55;28.00;58.50
61092;DHT22;46975;51.898;11.444;2022-09-03T12:58:24;28.20;56.60
61092;DHT22;46975;51.898;11.444;2022-09-03T13:01:15;28.10;58.20
61092;DHT22;46975;51.898;11.444;2022-09-03T13:04:13;28.30;59.30
61092;DHT22;46975;51.898;11.444;2022-09-03T13:09:28;28.70;55.00
61092;DHT22;46975;51.898;11.444;2022-09-03T13:11:55;28.20;56.10
61092;DHT22;46975;51.898;11.444;2022-09-03T13:14:25;28.00;55.80
61092;DHT22;46975;51.898;11.444;2022-09-03T13:22:09;27.40;57.70
61092;DHT22;46975;51.898;11.444;2022-09-03T13:30:13;27.50;56.80
61092;DHT22;46975;51.898;11.444;2022-09-03T13:35:20;27.70;55.90
61092;DHT22;46975;51.898;11.444;2022-09-03T13:46:06;27.10;56.50
61092;DHT22;46975;51.898;11.444;2022-09-03T13:48:41;27.30;56.90
61092;DHT22;46975;51.898;11.444;2022-09-03T13:51:48;27.80;56.50
61092;DHT22;46975;51.898;11.444;2022-09-03T13:59:33;28.00;55.20
61092;DHT22;46975;51.898;11.444;2022-09-03T14:02:54;27.70;53.90
61092;DHT22;46975;51.898;11.444;2022-09-03T14:05:14;27.50;55.80
61092;DHT22;46975;51.898;11.444;2022-09-03T14:08:39;27.70;54.40
61092;DHT22;46975;51.898;11.444;2022-09-03T14:19:03;27.50;56.30
61092;DHT22;46975;51.898;11.444;2022-09-03T14:24:44;27.60;58.50
61092;DHT22;46975;51.898;11.444;2022-09-03T14:27:12;27.80;55.60
61092;DHT22;46975;51.898;11.444;2022-09-03T14:29:38;27.90;53.80
61092;DHT22;46975;51.898;11.444;2022-09-03T14:38:07;27.50;56.90
61092;DHT22;46975;51.898;11.444;2022-09-03T14:40:42;27.60;54.70
61092;DHT22;46975;51.898;11.444;2022-09-03T15:05:27;27.00;58.90
61092;DHT22;46975;51.898;11.444;2022-09-03T15:08:07;26.90;55.90
61092;DHT22;46975;51.898;11.444;2022-09-03T15:11:14;26.10;55.60
61092;DHT22;46975;51.898;11.444;2022-09-03T15:14:05;25.60;58.00
61092;DHT22;46975;51.898;11.444;2022-09-03T15:30:55;27.10;57.00
61092;DHT22;46975;51.898;11.444;2022-09-03T15:33:34;27.50;57.10
61092;DHT22;46975;51.898;11.444;2022-09-03T15:36:16;26.90;56.10
61092;DHT22;46975;51.898;11.444;2022-09-03T15:38:58;26.80;57.20
61092;DHT22;46975;51.898;11.444;2022-09-03T15:41:47;26.30;57.70
61092;DHT22;46975;51.898;11.444;2022-09-03T15:44:17;26.20;58.40
61092;DHT22;46975;51.898;11.444;2022-09-03T15:46:47;26.20;59.70
61092;DHT22;46975;51.898;11.444;2022-09-03T15:49:27;25.90;59.50
61092;DHT22;46975;51.898;11.444;2022-09-03T15:54:50;24.90;60.30
61092;DHT22;46975;51.898;11.444;2022-09-03T15:57:20;25.00;60.90
61092;DHT22;46975;51.898;11.444;2022-09-03T16:02:46;24.30;63.30
61092;DHT22;46975;51.898;11.444;2022-09-03T16:05:40;24.50;64.80
61092;DHT22;46975;51.898;11.444;2022-09-03T16:08:09;25.00;65.80
61092;DHT22;46975;51.898;11.444;2022-09-03T16:10:57;24.70;61.40
61092;DHT22;46975;51.898;11.444;2022-09-03T16:16:07;24.30;62.20
61092;DHT22;46975;51.898;11.444;2022-09-03T16:18:42;23.90;63.70
61092;DHT22;46975;51.898;11.444;2022-09-03T16:21:35;23.60;66.60
61092;DHT22;46975;51.898;11.444;2022-09-03T16:24:16;23.30;68.00
61092;DHT22;46975;51.898;11.444;2022-09-03T16:29:14;23.30;68.20
61092;DHT22;46975;51.898;11.444;2022-09-03T16:32:11;23.50;68.70
61092;DHT22;46975;51.898;11.444;2022-09-03T16:37:40;23.60;66.60
61092;DHT22;46975;51.898;11.444;2022-09-03T17:05:01;23.10;69.60
61092;DHT22;46975;51.898;11.444;2022-09-03T17:07:51;22.80;70.80
61092;DHT22;46975;51.898;11.444;2022-09-03T17:10:45;22.60;72.00
61092;DHT22;46975;51.898;11.444;2022-09-03T17:19:11;22.00;75.70
61092;DHT22;46975;51.898;11.444;2022-09-03T17:24:53;21.70;78.10
61092;DHT22;46975;51.898;11.444;2022-09-03T17:27:48;21.60;78.00
61092;DHT22;46975;51.898;11.444;2022-09-03T17:33:33;21.40;78.50
61092;DHT22;46975;51.898;11.444;2022-09-03T17:36:15;21.30;79.70
61092;DHT22;46975;51.898;11.444;2022-09-03T17:50:17;20.90;84.50
61092;DHT22;46975;51.898;11.444;2022-09-03T17:55:35;20.70;88.10
61092;DHT22;46975;51.898;11.444;2022-09-03T18:03:33;20.50;90.20
61092;DHT22;46975;51.898;11.444;2022-09-03T18:06:49;20.40;90.10
61092;DHT22;46975;51.898;11.444;2022-09-03T18:09:04;20.30;91.10
61092;DHT22;46975;51.898;11.444;2022-09-03T18:11:38;20.20;91.40
61092;DHT22;46975;51.898;11.444;2022-09-03T18:14:21;20.10;91.80
61092;DHT22;46975;51.898;11.444;2022-09-03T18:16:59;20.00;92.20
61092;DHT22;46975;51.898;11.444;2022-09-03T18:19:38;19.90;92.90
61092;DHT22;46975;51.898;11.444;2022-09-03T18:22:45;19.90;93.40
61092;DHT22;46975;51.898;11.444;2022-09-03T18:25:34;19.80;94.10
61092;DHT22;46975;51.898;11.444;2022-09-03T18:28:19;19.60;94.90
61092;DHT22;46975;51.898;11.444;2022-09-03T18:31:12;19.60;95.60
61092;DHT22;46975;51.898;11.444;2022-09-03T18:33:57;19.50;96.40
61092;DHT22;46975;51.898;11.444;2022-09-03T18:36:41;19.50;97.10
61092;DHT22;46975;51.898;11.444;2022-09-03T18:39:27;19.40;97.40
61092;DHT22;46975;51.898;11.444;2022-09-03T18:42:34;19.30;98.10
61092;DHT22;46975;51.898;11.444;2022-09-03T18:45:40;19.30;98.90
61092;DHT22;46975;51.898;11.444;2022-09-03T18:48:45;19.30;99.30
61092;DHT22;46975;51.898;11.444;2022-09-03T18:54:53;19.10;99.90
61092;DHT22;46975;51.898;11.444;2022-09-03T19:04:18;19.00;99.90
61092;DHT22;46975;51.898;11.444;2022-09-03T19:07:06;18.90;99.90
61092;DHT22;46975;51.898;11.444;2022-09-03T19:15:50;18.60;99.90
61092;DHT22;46975;51.898;11.444;2022-09-03T19:21:50;18.40;99.90
61092;DHT22;46975;51.898;11.444;2022-09-03T19:24:36;18.40;99.90
61092;DHT22;46975;51.898;11.444;2022-09-03T19:27:28;18.30;99.90
61092;DHT22;46975;51.898;11.444;2022-09-03T19:30:20;18.30;99.90
61092;DHT22;46975;51.898;11.444;2022-09-03T19:33:49;18.20;99.90
61092;DHT22;46975;51.898;11.444;2022-09-03T19:36:52;18.10;99.90
61092;DHT22;46975;51.898;11.444;2022-09-03T19:45:40;17.90;99.90
61092;DHT22;46975;51.898;11.444;2022-09-03T19:54:28;17.70;99.90
61092;DHT22;46975;51.898;11.444;2022-09-03T19:57:15;17.70;99.90
61092;DHT22;46975;51.898;11.444;2022-09-03T20:00:02;17.60;99.90
61092;DHT22;46975;51.898;11.444;2022-09-03T20:02:47;17.60;99.90
61092;DHT22;46975;51.898;11.444;2022-09-03T20:05:32;17.50;99.90
61092;DHT22;46975;51.898;11.444;2022-09-03T20:08:18;17.50;99.90
61092;DHT22;46975;51.898;11.444;2022-09-03T20:11:05;17.40;99.90
61092;DHT22;46975;51.898;11.444;2022-09-03T20:13:33;17.40;99.90
61092;DHT22;46975;51.898;11.444;2022-09-03T20:16:53;17.40;99.90
61092;DHT22;46975;51.898;11.444;2022-09-03T20:22:29;17.30;99.90
61092;DHT22;46975;51.898;11.444;2022-09-03T20:25:18;17.30;99.90
61092;DHT22;46975;51.898;11.444;2022-09-03T20:31:13;17.20;99.90
61092;DHT22;46975;51.898;11.444;2022-09-03T20:34:30;17.20;99.90
61092;DHT22;46975;51.898;11.444;2022-09-03T20:36:55;17.20;99.90
61092;DHT22;46975;51.898;11.444;2022-09-03T20:51:13;17.00;99.90
61092;DHT22;46975;51.898;11.444;2022-09-03T20:57:04;17.00;99.90
61092;DHT22;46975;51.898;11.444;2022-09-03T20:59:40;17.00;99.90
61092;DHT22;46975;51.898;11.444;2022-09-03T21:10:33;16.80;99.90
61092;DHT22;46975;51.898;11.444;2022-09-03T21:22:13;16.60;99.90
61092;DHT22;46975;51.898;11.444;2022-09-03T21:24:55;16.50;99.90
61092;DHT22;46975;51.898;11.444;2022-09-03T21:27:29;16.40;99.90
61092;DHT22;46975;51.898;11.444;2022-09-03T21:32:54;16.40;99.90
61092;DHT22;46975;51.898;11.444;2022-09-03T21:35:33;16.40;99.90
61092;DHT22;46975;51.898;11.444;2022-09-03T21:38:10;16.40;99.90
61092;DHT22;46975;51.898;11.444;2022-09-03T21:40:45;16.40;99.90
61092;DHT22;46975;51.898;11.444;2022-09-03T21:43:30;16.40;99.90